Portada
METAR-TAF:

METAR-TAF

Aeroports :

Calgary-Springbank, Alberta, Canadà

latitud: 51-06N, longitud: 114-22W, altitud: 1200 m

Observació

L'informe es va fer fa 22 minuts, a les 01:00 UTC
Vent 14 kt del Oest
Temperatura 4°C
Humitat 65%
Pressió 1002 hPa
Visibilitat: 14.5 km
Cel ennuvolat a una alçada de 10000 ft
Cel cobert a una alçada de 12000 ft

METAR: CYBW 250100Z AUTO 26014KT 9SM BKN100 OVC120 04/M02 A2960 RMK SLP057

Hora: 18:22 (01:22 UTC)

Pronòstic

L'informe es va fer fa 1 hora i 44 minuts, a les 23:38 UTC
Pronòstic vàlid del 25 a les 00 UTC al 25 a les 05 UTC
Vent 14 kt del Oest
Visibilitat: 10 km
Núvols disperses a una alçada de 10000 ft
Cel ennuvolat a una alçada de 24000 ft

TAF: CYBW 242338Z 2500/2505 28014KT P6SM SCT100 BKN240 RMK FCST BASED ON AUTO OBS. NXT FCST WILL BE ISSUED AT 251245Z

Observacions i pronòstics meteorològics de més de 4000 aeroports (METAR i TAF).

Les estacions disponibles són els punts grocs i vermells al mapa.

Posi el ratolí al punt desitjat per veure el nom de l'estació.

Feu clic per veure les observacions i els pronòstics meteorològics.

Per canviar el mapa: feu clic els botons verds amb una creu de color negre per apropar; al botó verd amb un guió per allunyar la imatge; o en les fletxes verdes per a mapes adjacents.


METAR-TAF: